createdAt,value
2019-05-02T00:00:57.520Z,56.15
2019-05-02T00:03:29.910Z,56.13
2019-05-02T00:06:02.997Z,56.27
2019-05-02T00:08:35.378Z,56.42
2019-05-02T00:11:06.838Z,56.46
2019-05-02T00:13:38.050Z,56.64
2019-05-02T00:16:13.938Z,57.17
2019-05-02T00:18:43.336Z,57.02
2019-05-02T00:21:15.822Z,56.71
2019-05-02T00:23:46.921Z,56.70
2019-05-02T00:26:19.340Z,56.71
2019-05-02T00:28:50.538Z,56.81
2019-05-02T00:31:22.052Z,57.17
2019-05-02T00:33:53.044Z,56.82
2019-05-02T00:36:24.044Z,56.33
2019-05-02T00:38:55.154Z,56.94
2019-05-02T00:41:26.632Z,57.41
2019-05-02T00:43:57.670Z,57.26
2019-05-02T00:46:30.236Z,57.06
2019-05-02T00:49:01.912Z,57.01
2019-05-02T00:51:33.078Z,56.87
2019-05-02T00:54:04.322Z,56.68
2019-05-02T00:56:35.379Z,56.68
2019-05-02T00:59:07.459Z,57.08
2019-05-02T01:01:46.562Z,57.47
2019-05-02T01:04:31.012Z,56.76
2019-05-02T01:07:02.387Z,57.21
2019-05-02T01:09:33.563Z,57.15
2019-05-02T01:12:08.470Z,57.40
2019-05-02T01:14:37.453Z,57.59
2019-05-02T01:17:08.713Z,57.61
2019-05-02T01:19:39.797Z,57.75
2019-05-02T01:22:15.745Z,57.92
2019-05-02T01:24:43.568Z,57.93
2019-05-02T01:27:41.222Z,57.71
2019-05-02T01:30:42.362Z,57.79
2019-05-02T01:33:36.911Z,57.88
2019-05-02T01:36:23.429Z,58.55
2019-05-02T01:38:54.504Z,58.15
2019-05-02T01:41:29.196Z,57.80
2019-05-02T01:44:00.076Z,58.58
2019-05-02T01:46:31.076Z,58.81
2019-05-02T01:49:02.087Z,58.57
2019-05-02T01:51:36.546Z,58.69
2019-05-02T01:54:10.039Z,58.48
2019-05-02T01:56:39.471Z,58.52
2019-05-02T01:59:10.479Z,58.28
2019-05-02T02:01:41.634Z,58.55
2019-05-02T02:04:16.308Z,58.68
2019-05-02T02:06:45.769Z,59.09
2019-05-02T02:09:17.106Z,58.32
2019-05-02T02:11:48.140Z,58.85
2019-05-02T02:14:19.714Z,58.93
2019-05-02T02:16:50.748Z,59.32
2019-05-02T02:19:27.125Z,59.12
2019-05-02T02:22:17.127Z,59.31
2019-05-02T02:25:02.965Z,59.15
2019-05-02T02:27:34.251Z,59.39
2019-05-02T02:30:06.449Z,59.17
2019-05-02T02:32:37.453Z,58.91
2019-05-02T02:35:10.103Z,59.23
2019-05-02T02:37:52.148Z,58.97
2019-05-02T02:40:15.706Z,58.96
2019-05-02T02:42:46.909Z,58.69
2019-05-02T02:45:41.296Z,58.64
2019-05-02T02:48:12.571Z,58.66
2019-05-02T02:50:45.257Z,59.01
2019-05-02T02:53:24.148Z,59.18
2019-05-02T02:56:01.187Z,59.25
2019-05-02T02:58:24.425Z,59.08
2019-05-02T03:00:55.497Z,58.84
2019-05-02T03:03:27.768Z,59.17
2019-05-02T03:06:05.460Z,59.34
2019-05-02T03:08:32.543Z,58.79
2019-05-02T03:11:03.748Z,58.76
2019-05-02T03:13:53.184Z,58.90
2019-05-02T03:16:24.547Z,59.11
2019-05-02T03:18:55.650Z,59.55
2019-05-02T03:21:26.757Z,59.79
2019-05-02T03:24:03.298Z,59.15
2019-05-02T03:26:30.842Z,59.16
2019-05-02T03:29:02.519Z,59.38
2019-05-02T03:31:33.621Z,59.81
2019-05-02T03:34:05.169Z,59.14
2019-05-02T03:36:37.310Z,59.11
2019-05-02T03:39:14.944Z,59.36
2019-05-02T03:41:41.515Z,59.57
2019-05-02T03:44:24.792Z,59.43
2019-05-02T03:46:46.085Z,59.29
2019-05-02T03:49:17.770Z,59.42
2019-05-02T03:51:48.859Z,59.89
2019-05-02T03:54:20.342Z,59.81
2019-05-02T03:56:53.300Z,59.86
2019-05-02T03:59:37.067Z,59.86
2019-05-02T04:01:58.811Z,59.67
2019-05-02T04:04:31.578Z,59.50
2019-05-02T04:07:03.570Z,59.84
2019-05-02T04:09:42.552Z,59.70
2019-05-02T04:12:18.946Z,59.50
2019-05-02T04:14:42.854Z,59.63
2019-05-02T04:17:14.306Z,59.72
2019-05-02T04:19:46.090Z,59.80
2019-05-02T04:22:17.568Z,60.14
2019-05-02T04:24:54.503Z,60.17
2019-05-02T04:27:27.777Z,59.68
2019-05-02T04:29:55.112Z,59.75
2019-05-02T04:32:26.284Z,60.46
2019-05-02T04:34:58.130Z,60.51
2019-05-02T04:37:34.432Z,60.38
2019-05-02T04:40:04.017Z,60.24
2019-05-02T04:42:34.984Z,60.17
2019-05-02T04:45:24.070Z,60.03
2019-05-02T04:47:42.208Z,60.68
2019-05-02T04:50:18.048Z,60.34
2019-05-02T04:52:48.200Z,60.34
2019-05-02T04:55:25.834Z,60.35
2019-05-02T04:57:51.036Z,60.50
2019-05-02T05:00:28.619Z,60.59
2019-05-02T05:02:59.928Z,59.93
2019-05-02T05:05:31.444Z,60.19
2019-05-02T05:08:02.520Z,59.94
2019-05-02T05:10:40.369Z,59.94
2019-05-02T05:13:07.732Z,60.19
2019-05-02T05:15:48.437Z,60.32
2019-05-02T05:18:14.484Z,60.70
2019-05-02T05:20:45.976Z,60.34
2019-05-02T05:23:39.733Z,60.53
2019-05-02T05:26:10.717Z,60.45
2019-05-02T05:28:44.282Z,60.28
2019-05-02T05:31:18.424Z,60.26
2019-05-02T05:33:47.909Z,60.05
2019-05-02T05:36:28.883Z,60.65
2019-05-02T05:38:52.902Z,60.67
2019-05-02T05:41:23.919Z,60.60
2019-05-02T05:43:57.286Z,60.32
2019-05-02T05:46:28.221Z,60.94
2019-05-02T05:48:59.676Z,60.81
2019-05-02T05:51:30.718Z,60.65
2019-05-02T05:54:03.163Z,60.12
2019-05-02T05:56:39.721Z,60.17
2019-05-02T05:59:08.300Z,60.44
2019-05-02T06:01:39.663Z,60.60
2019-05-02T06:04:13.910Z,60.64
2019-05-02T06:06:44.594Z,60.34
2019-05-02T06:09:16.528Z,60.25
2019-05-02T06:11:50.762Z,60.23
2019-05-02T06:14:24.854Z,60.36
2019-05-02T06:16:53.296Z,59.89
2019-05-02T06:19:24.401Z,58.64
2019-05-02T06:21:55.396Z,59.79
2019-05-02T06:24:26.400Z,59.92
2019-05-02T06:26:57.894Z,59.34
2019-05-02T06:29:28.907Z,58.86
2019-05-02T06:32:03.762Z,58.73
2019-05-02T06:34:38.810Z,58.64
2019-05-02T06:37:08.145Z,58.15
2019-05-02T06:39:40.492Z,58.13
2019-05-02T06:42:11.564Z,58.04
2019-05-02T06:44:42.689Z,58.45
2019-05-02T06:47:13.701Z,57.96
2019-05-02T06:49:44.758Z,57.63
2019-05-02T06:52:16.476Z,57.85
2019-05-02T06:54:47.496Z,57.54
2019-05-02T06:57:23.680Z,57.31
2019-05-02T06:59:54.771Z,57.01
2019-05-02T07:02:28.291Z,56.69
2019-05-02T07:04:57.245Z,56.55
2019-05-02T07:07:31.291Z,56.80
2019-05-02T07:10:00.995Z,56.10
2019-05-02T07:12:32.145Z,58.00
2019-05-02T07:15:08.097Z,58.07
2019-05-02T07:17:45.240Z,57.03
2019-05-02T07:20:17.412Z,55.81
2019-05-02T07:22:48.436Z,55.71
2019-05-02T07:25:20.486Z,55.64
2019-05-02T07:27:51.573Z,55.50
2019-05-02T07:30:23.220Z,54.14
2019-05-02T07:32:56.281Z,54.76
2019-05-02T07:35:27.148Z,55.10
2019-05-02T07:37:58.159Z,54.15
2019-05-02T07:40:29.438Z,53.94
2019-05-02T07:43:00.740Z,53.61
2019-05-02T07:45:31.808Z,53.50
2019-05-02T07:48:02.945Z,53.98
2019-05-02T07:50:34.039Z,53.69
2019-05-02T07:53:09.611Z,52.83
2019-05-02T07:55:40.636Z,52.62
2019-05-02T07:58:11.030Z,52.45
2019-05-02T08:00:42.121Z,52.94
2019-05-02T08:03:13.427Z,52.13
2019-05-02T08:05:44.988Z,51.27
2019-05-02T08:08:16.908Z,51.01
2019-05-02T08:10:48.081Z,51.19
2019-05-02T08:13:19.478Z,50.16
2019-05-02T08:15:52.287Z,50.06
2019-05-02T08:18:25.239Z,50.53
2019-05-02T08:20:57.384Z,50.16
2019-05-02T08:23:28.471Z,50.13
2019-05-02T08:25:59.639Z,50.75
2019-05-02T08:28:36.643Z,49.74
2019-05-02T08:31:07.737Z,49.50
2019-05-02T08:33:38.781Z,48.03
2019-05-02T08:36:09.887Z,48.78
2019-05-02T08:38:41.274Z,47.41
2019-05-02T08:41:12.572Z,46.97
2019-05-02T08:43:44.918Z,47.53
2019-05-02T08:46:17.115Z,45.72
2019-05-02T08:48:50.733Z,48.89
2019-05-02T08:51:21.191Z,50.80
2019-05-02T08:53:56.839Z,50.38
2019-05-02T08:56:25.052Z,49.85
2019-05-02T08:58:56.057Z,49.70
2019-05-02T09:01:34.876Z,49.79
2019-05-02T09:03:59.994Z,50.13
2019-05-02T09:06:31.295Z,51.18
2019-05-02T09:09:02.303Z,51.11
2019-05-02T09:11:34.591Z,50.70
2019-05-02T09:14:05.918Z,48.86
2019-05-02T09:16:37.025Z,47.33
2019-05-02T09:19:08.148Z,47.21
2019-05-02T09:21:39.170Z,48.52
2019-05-02T09:24:13.541Z,49.21
2019-05-02T09:26:42.938Z,50.87
2019-05-02T09:29:14.199Z,50.87
2019-05-02T09:31:46.140Z,50.08
2019-05-02T09:34:22.950Z,49.96
2019-05-02T09:39:18.376Z,50.21
2019-05-02T09:41:49.491Z,50.99
2019-05-02T09:44:22.387Z,48.77
2019-05-02T09:46:57.076Z,48.68
2019-05-02T09:49:26.393Z,48.67
2019-05-02T09:51:59.713Z,48.97
2019-05-02T09:54:32.224Z,48.52
2019-05-02T09:57:03.651Z,48.49
2019-05-02T09:59:34.783Z,48.89
2019-05-02T10:02:08.509Z,47.18
2019-05-02T10:04:42.133Z,48.43
2019-05-02T10:07:15.313Z,48.75
2019-05-02T10:09:45.190Z,47.55
2019-05-02T10:12:17.600Z,45.84
2019-05-02T10:14:48.953Z,46.90
2019-05-02T10:17:22.996Z,45.00
2019-05-02T10:19:57.048Z,46.16
2019-05-02T10:22:31.231Z,46.30
2019-05-02T10:24:59.264Z,47.09
2019-05-02T10:27:32.185Z,45.92
2019-05-02T10:30:11.975Z,45.66
2019-05-02T10:32:36.908Z,45.79
2019-05-02T10:35:09.668Z,45.74
2019-05-02T10:37:43.053Z,44.46
2019-05-02T10:40:17.152Z,45.36
2019-05-02T10:42:47.313Z,44.36
2019-05-02T10:45:18.581Z,44.51
2019-05-02T10:47:49.659Z,43.42
2019-05-02T10:50:32.911Z,42.68
2019-05-02T10:53:11.108Z,44.02
2019-05-02T10:55:37.017Z,43.48
2019-05-02T10:58:08.116Z,43.06
2019-05-02T11:00:42.432Z,44.07
2019-05-02T11:03:22.499Z,43.03
2019-05-02T11:05:57.949Z,44.48
2019-05-02T11:08:31.929Z,45.96
2019-05-02T11:11:06.080Z,43.61
2019-05-02T11:14:01.114Z,42.30
2019-05-02T11:16:42.397Z,44.25
2019-05-02T11:19:17.805Z,43.25
2019-05-02T11:21:56.381Z,42.94
2019-05-02T11:24:22.794Z,42.81
2019-05-02T11:26:54.038Z,43.10
2019-05-02T11:29:25.137Z,42.03
2019-05-02T11:31:56.319Z,40.93
2019-05-02T11:34:27.399Z,39.83
2019-05-02T11:36:58.427Z,38.96
2019-05-02T11:39:37.865Z,39.90
2019-05-02T11:42:02.401Z,40.58
2019-05-02T11:44:33.452Z,41.35
2019-05-02T11:47:04.903Z,43.65
2019-05-02T11:49:35.910Z,42.63
2019-05-02T11:52:07.099Z,42.47
2019-05-02T11:54:39.315Z,41.71
2019-05-02T11:57:11.705Z,39.08
2019-05-02T11:59:42.778Z,38.59
2019-05-02T12:02:29.425Z,40.38
2019-05-02T12:05:01.949Z,39.48
2019-05-02T12:07:34.190Z,39.62
2019-05-02T12:10:05.375Z,40.86
2019-05-02T12:12:36.597Z,40.05
2019-05-02T12:15:07.876Z,40.14
2019-05-02T12:17:38.884Z,40.19
2019-05-02T12:20:11.890Z,39.88
2019-05-02T12:22:43.002Z,39.22
2019-05-02T12:25:14.140Z,38.86
2019-05-02T12:27:47.391Z,38.13
2019-05-02T12:30:18.603Z,39.34
2019-05-02T12:32:53.140Z,40.01
2019-05-02T12:35:24.343Z,38.30
2019-05-02T12:37:55.412Z,37.73
2019-05-02T12:40:28.025Z,37.34
2019-05-02T12:42:59.088Z,38.21
2019-05-02T12:45:30.257Z,38.34
2019-05-02T12:48:02.404Z,39.45
2019-05-02T12:50:33.549Z,40.50
2019-05-02T12:53:04.718Z,40.09
2019-05-02T12:55:36.002Z,39.85
2019-05-02T12:58:07.169Z,39.63
2019-05-02T13:00:38.242Z,40.46
2019-05-02T13:03:28.176Z,37.48
2019-05-02T13:05:59.212Z,38.99
2019-05-02T13:08:32.242Z,39.88
2019-05-02T13:11:14.294Z,39.56
2019-05-02T13:13:45.404Z,38.42
2019-05-02T13:16:17.743Z,38.37
2019-05-02T13:18:49.057Z,37.46
2019-05-02T13:21:38.715Z,39.59
2019-05-02T13:24:14.852Z,40.33
2019-05-02T13:26:42.783Z,39.04
2019-05-02T13:29:13.561Z,39.07
2019-05-02T13:31:53.465Z,37.55
2019-05-02T13:34:33.851Z,37.37
2019-05-02T13:37:06.038Z,36.70
2019-05-02T13:39:42.345Z,36.73
2019-05-02T13:42:15.372Z,37.03
2019-05-02T13:44:54.768Z,37.90
2019-05-02T13:47:26.732Z,37.54
2019-05-02T13:50:00.901Z,39.01
2019-05-02T13:52:33.083Z,38.11
2019-05-02T13:55:05.928Z,37.40
2019-05-02T13:57:42.803Z,38.32
2019-05-02T14:00:12.735Z,38.27
2019-05-02T14:02:45.006Z,38.49
2019-05-02T14:05:17.214Z,39.53
2019-05-02T14:07:55.703Z,38.98
2019-05-02T14:10:32.186Z,38.36
2019-05-02T14:13:03.190Z,37.24
2019-05-02T14:15:38.704Z,37.25
2019-05-02T14:18:09.778Z,37.27
2019-05-02T14:20:42.638Z,37.13
2019-05-02T14:23:13.985Z,37.87
2019-05-02T14:25:45.077Z,38.33
2019-05-02T14:28:16.140Z,38.81
2019-05-02T14:30:47.266Z,37.96
2019-05-02T14:33:23.199Z,38.15
2019-05-02T14:35:54.521Z,39.58
2019-05-02T14:38:25.580Z,39.75
2019-05-02T14:41:12.421Z,39.68
2019-05-02T14:43:53.100Z,40.19
2019-05-02T14:46:35.386Z,40.16
2019-05-02T14:48:59.080Z,40.47
2019-05-02T14:51:32.083Z,40.43
2019-05-02T14:54:07.921Z,40.50
2019-05-02T14:57:04.026Z,41.36
2019-05-02T14:59:35.141Z,40.81
2019-05-02T15:02:09.499Z,41.04
2019-05-02T15:04:44.384Z,40.36
2019-05-02T15:07:17.684Z,41.00
2019-05-02T15:09:46.252Z,42.26
2019-05-02T15:12:18.970Z,41.08
2019-05-02T15:14:57.029Z,41.65
2019-05-02T15:17:23.296Z,42.77
2019-05-02T15:19:54.346Z,42.88
2019-05-02T15:22:27.596Z,45.72
2019-05-02T15:24:59.589Z,52.36
2019-05-02T15:27:40.187Z,56.01
2019-05-02T15:30:06.677Z,58.39
2019-05-02T15:33:17.231Z,60.23
2019-05-02T15:35:52.553Z,62.03
2019-05-02T15:38:27.661Z,63.99
2019-05-02T15:40:59.398Z,63.86
2019-05-02T15:43:29.101Z,64.64
2019-05-02T15:46:01.695Z,65.29
2019-05-02T15:48:33.127Z,64.81
2019-05-02T15:51:07.643Z,65.83
2019-05-02T15:53:48.581Z,65.67
2019-05-02T15:56:21.322Z,65.93
2019-05-02T15:58:52.412Z,67.16
2019-05-02T16:01:32.005Z,66.08
2019-05-02T16:04:03.905Z,67.32
2019-05-02T16:06:35.003Z,67.73
2019-05-02T16:09:08.495Z,67.36
2019-05-02T16:11:41.198Z,67.21
2019-05-02T16:14:12.857Z,67.38
2019-05-02T16:16:45.286Z,67.88
2019-05-02T16:19:24.772Z,68.35
2019-05-02T16:21:59.528Z,68.36
2019-05-02T16:24:32.088Z,68.57
2019-05-02T16:27:03.415Z,68.20
2019-05-02T16:29:34.494Z,67.72
2019-05-02T16:32:35.203Z,67.76
2019-05-02T16:35:12.148Z,67.09
2019-05-02T16:37:39.210Z,67.29
2019-05-02T16:40:12.026Z,67.57
2019-05-02T16:42:43.112Z,67.68
2019-05-02T16:45:14.543Z,68.07
2019-05-02T16:47:49.744Z,68.37
2019-05-02T16:50:19.583Z,68.29
2019-05-02T16:52:50.646Z,68.00
2019-05-02T16:55:26.517Z,67.79
2019-05-02T16:57:56.877Z,67.83
2019-05-02T17:00:28.503Z,67.74
2019-05-02T17:03:02.030Z,67.54
2019-05-02T17:05:32.999Z,68.02
2019-05-02T17:08:18.638Z,68.13
2019-05-02T17:10:57.384Z,68.19
2019-05-02T17:13:34.195Z,68.35
2019-05-02T17:16:04.889Z,69.17
2019-05-02T17:18:34.108Z,68.09
2019-05-02T17:21:05.365Z,67.89
2019-05-02T17:23:37.510Z,68.33
2019-05-02T17:26:09.349Z,68.54
2019-05-02T17:28:43.371Z,69.24
2019-05-02T17:31:19.255Z,68.70
2019-05-02T17:33:50.490Z,69.24
2019-05-02T17:36:23.678Z,68.88
2019-05-02T17:38:54.400Z,69.79
2019-05-02T17:41:25.075Z,69.51
2019-05-02T17:43:59.006Z,69.54
2019-05-02T17:46:29.005Z,69.21
2019-05-02T17:49:00.175Z,69.16
2019-05-02T17:52:04.956Z,69.28
2019-05-02T17:54:26.394Z,69.23
2019-05-02T17:56:59.088Z,68.58
2019-05-02T17:59:34.678Z,68.19
2019-05-02T18:02:06.537Z,68.35
2019-05-02T18:04:35.727Z,67.55
2019-05-02T18:07:06.983Z,68.14
2019-05-02T18:09:39.178Z,68.21
2019-05-02T18:12:12.589Z,68.44
2019-05-02T18:14:44.575Z,69.11
2019-05-02T18:17:15.679Z,69.18
2019-05-02T18:19:46.707Z,68.84
2019-05-02T18:22:25.916Z,69.19
2019-05-02T18:24:52.532Z,69.38
2019-05-02T18:27:23.472Z,69.12
2019-05-02T18:29:54.495Z,69.84
2019-05-02T18:32:26.301Z,69.18
2019-05-02T18:35:02.442Z,69.16
2019-05-02T18:37:32.480Z,69.15
2019-05-02T18:40:03.197Z,69.79
2019-05-02T18:42:34.438Z,69.45
2019-05-02T18:45:08.897Z,69.00
2019-05-02T18:47:41.789Z,68.96
2019-05-02T18:50:36.798Z,69.33
2019-05-02T18:53:09.406Z,69.20
2019-05-02T18:55:42.229Z,68.52
2019-05-02T18:58:14.323Z,68.96
2019-05-02T19:00:45.675Z,69.02
2019-05-02T19:03:17.407Z,68.96
2019-05-02T19:05:51.631Z,69.26
2019-05-02T19:08:31.126Z,69.42
2019-05-02T19:11:07.604Z,69.04
2019-05-02T19:13:29.920Z,69.47
2019-05-02T19:16:02.022Z,69.00
2019-05-02T19:18:34.119Z,68.89
2019-05-02T19:21:06.224Z,69.01
2019-05-02T19:23:37.801Z,68.76
2019-05-02T19:26:10.514Z,68.77
2019-05-02T19:28:48.687Z,69.14
2019-05-02T19:31:19.989Z,69.40
2019-05-02T19:33:52.738Z,68.76
2019-05-02T19:36:27.608Z,68.38
2019-05-02T19:39:05.590Z,68.76
2019-05-02T19:41:32.041Z,69.15
2019-05-02T19:44:03.568Z,69.00
2019-05-02T19:46:38.763Z,69.54
2019-05-02T19:49:12.410Z,69.62
2019-05-02T19:51:40.727Z,69.73
2019-05-02T19:54:12.462Z,69.92
2019-05-02T19:56:47.314Z,70.66
2019-05-02T19:59:16.688Z,69.86
2019-05-02T20:01:52.022Z,69.54
2019-05-02T20:04:23.003Z,69.62
2019-05-02T20:06:54.980Z,69.06
2019-05-02T20:09:25.993Z,69.41
2019-05-02T20:11:57.193Z,69.57
2019-05-02T20:14:28.290Z,69.56
2019-05-02T20:17:02.191Z,68.91
2019-05-02T20:19:35.627Z,69.22
2019-05-02T20:22:13.862Z,69.00
2019-05-02T20:25:00.163Z,69.28
2019-05-02T20:27:28.945Z,69.36
2019-05-02T20:30:00.091Z,68.87
2019-05-02T20:32:32.222Z,69.35
2019-05-02T20:35:03.576Z,69.76
2019-05-02T20:37:34.806Z,69.29
2019-05-02T20:40:06.516Z,69.37
2019-05-02T20:42:37.893Z,69.20
2019-05-02T20:45:09.240Z,69.38
2019-05-02T20:47:40.243Z,68.87
2019-05-02T20:50:12.076Z,69.47
2019-05-02T20:52:43.220Z,69.47
2019-05-02T20:55:14.607Z,69.16
2019-05-02T20:57:45.770Z,69.62
2019-05-02T21:00:23.628Z,69.82
2019-05-02T21:02:54.994Z,69.18
2019-05-02T21:05:35.002Z,69.57
2019-05-02T21:08:16.076Z,69.83
2019-05-02T21:10:49.464Z,69.57
2019-05-02T21:13:22.088Z,69.96
2019-05-02T21:15:53.355Z,69.84
2019-05-02T21:18:24.861Z,69.92
2019-05-02T21:20:55.963Z,70.06
2019-05-02T21:23:27.564Z,70.18
2019-05-02T21:25:58.583Z,70.06
2019-05-02T21:28:31.986Z,70.03
2019-05-02T21:31:02.998Z,69.76
2019-05-02T21:33:38.633Z,70.14
2019-05-02T21:36:12.038Z,69.56
2019-05-02T21:38:43.130Z,69.92
2019-05-02T21:41:14.774Z,70.28
2019-05-02T21:43:45.937Z,69.93
2019-05-02T21:46:16.974Z,70.08
2019-05-02T21:48:48.088Z,70.43
2019-05-02T21:51:28.794Z,70.02
2019-05-02T21:54:18.060Z,70.23
2019-05-02T21:56:54.161Z,70.25
2019-05-02T21:59:25.249Z,70.63
2019-05-02T22:01:58.212Z,70.21
2019-05-02T22:04:29.223Z,70.17
2019-05-02T22:07:00.323Z,70.13
2019-05-02T22:09:32.376Z,70.65
2019-05-02T22:12:03.565Z,70.67
2019-05-02T22:14:34.795Z,70.53
2019-05-02T22:17:06.246Z,70.41
2019-05-02T22:19:37.459Z,70.49
2019-05-02T22:22:08.505Z,70.47
2019-05-02T22:24:39.518Z,70.60
2019-05-02T22:27:12.407Z,70.21
2019-05-02T22:29:43.608Z,70.32
2019-05-02T22:32:14.909Z,70.37
2019-05-02T22:34:46.264Z,70.12
2019-05-02T22:37:19.056Z,70.33
2019-05-02T22:39:54.975Z,70.18
2019-05-02T22:42:26.053Z,70.36
2019-05-02T22:44:57.399Z,69.59
2019-05-02T22:47:28.497Z,70.02
2019-05-02T22:50:00.467Z,69.54
2019-05-02T22:52:32.259Z,69.41
2019-05-02T22:55:03.275Z,69.85
2019-05-02T22:57:34.437Z,69.18
2019-05-02T23:00:06.655Z,69.59
2019-05-02T23:02:39.416Z,69.44
2019-05-02T23:05:12.401Z,69.89
2019-05-02T23:07:43.428Z,69.68
2019-05-02T23:10:14.882Z,69.69
2019-05-02T23:12:45.973Z,69.35
2019-05-02T23:15:17.121Z,69.89
2019-05-02T23:17:48.509Z,69.55
2019-05-02T23:20:21.811Z,69.37
2019-05-02T23:22:53.391Z,69.43
2019-05-02T23:25:42.616Z,69.63
2019-05-02T23:28:17.756Z,69.43
2019-05-02T23:30:49.283Z,69.32
2019-05-02T23:33:23.390Z,69.50
2019-05-02T23:35:53.316Z,69.57
2019-05-02T23:38:24.418Z,69.68
2019-05-02T23:40:55.412Z,69.72
2019-05-02T23:43:26.489Z,69.74
2019-05-02T23:45:58.220Z,69.52
2019-05-02T23:48:29.229Z,69.21
2019-05-02T23:51:00.230Z,68.89
2019-05-02T23:53:31.629Z,69.37
2019-05-02T23:56:02.885Z,69.33
2019-05-02T23:58:34.022Z,69.81
